LGA weather

La Guardia Airport
New York, New York, United States

Public forecast

Using degrees Fahrenheit for public forecast. Weather courtesy of forecast.io.

METAR (pilot weather report)

Retrieved 2018/04/22 08:51 UTC (1 hour ago):

KLGA 220851Z 32007KT 10SM SCT250 09/M05 A3037 RMK AO2 SLP285 T00891050 50004

TAF (pilot weather forecast)

Retrieved 2018/04/22 06:42 UTC (3 hours ago):

TAF KLGA 220539Z 2206/2312 33011KT P6SM SCT250 FM220800 33007KT P6SM FEW060 FEW250 FM222000 27008KT P6SM FEW060 FM222100 18010KT P6SM FEW060 FM230000 18007KT P6SM FEW060 FM230200 VRB04KT P6SM SKC